Time;durP1;ratioP1;P1;durP2;ratioP2;P2;SDS_P1;SDS_P2;PMS_P1;PMS_P2;Temp;Humidity;BMP_temperature;BMP_pressure;BME280_temperature;BME280_humidity;BME280_pressure;Samples;Min_cycle;Max_cycle;Signal;HPM_P1;HPM_P2
2022/09/21 00:02:04;;;;;;;38.22;36.30;;;;;;;11.04;100.00;101162.56;4952348;28;20067;-84
2022/09/21 00:04:42;;;;;;;33.33;31.63;;;;;;;10.67;100.00;101166.47;4944062;28;20059;-79
2022/09/21 00:07:11;;;;;;;34.10;32.10;;;;;;;10.59;100.00;101162.16;4962052;28;20536;-81
2022/09/21 00:09:41;;;;;;;33.53;31.77;;;;;;;10.48;100.00;101171.47;4952781;28;20055;-79
2022/09/21 00:12:11;;;;;;;34.75;32.85;;;;;;;10.38;100.00;101171.00;4976468;28;20086;-81
2022/09/21 00:15:03;;;;;;;39.60;37.47;;;;;;;10.21;100.00;101165.13;4969012;28;20064;-85
2022/09/21 00:17:39;;;;;;;32.13;30.42;;;;;;;9.82;100.00;101162.94;4935118;28;20483;-84
2022/09/21 00:20:11;;;;;;;41.28;38.78;;;;;;;10.04;100.00;101169.06;4959723;28;20054;-82
2022/09/21 00:22:38;;;;;;;35.30;33.28;;;;;;;9.84;100.00;101175.00;4955617;28;20126;-80
2022/09/21 00:25:11;;;;;;;34.10;31.85;;;;;;;10.11;100.00;101172.59;4969070;28;20118;-83
2022/09/21 00:27:47;;;;;;;34.70;32.60;;;;;;;10.26;100.00;101173.38;4971364;28;20416;-81
2022/09/21 00:30:23;;;;;;;33.08;31.27;;;;;;;10.15;100.00;101181.81;4957703;28;20154;-83
2022/09/21 00:32:55;;;;;;;37.40;34.83;;;;;;;10.04;100.00;101167.22;4959472;28;20952;-80
2022/09/21 00:35:32;;;;;;;36.30;34.40;;;;;;;10.01;100.00;101177.41;4956599;28;20126;-81
2022/09/21 00:38:03;;;;;;;39.05;36.92;;;;;;;9.74;100.00;101179.81;4973850;28;20043;-84
2022/09/21 00:40:31;;;;;;;35.08;33.17;;;;;;;10.04;100.00;101177.00;4958373;28;20403;-80
2022/09/21 00:43:14;;;;;;;32.55;30.75;;;;;;;9.64;100.00;101182.75;4955581;28;20412;-79
2022/09/21 00:45:47;;;;;;;31.95;30.05;;;;;;;9.68;100.00;101182.38;4947067;28;20520;-81
2022/09/21 00:48:45;;;;;;;35.63;33.83;;;;;;;10.07;100.00;101188.06;4963383;28;20051;-83
2022/09/21 00:51:20;;;;;;;35.47;33.55;;;;;;;9.77;100.00;101183.91;4931961;28;20050;-83
2022/09/21 00:53:59;;;;;;;34.80;32.70;;;;;;;9.71;100.00;101180.19;4965583;28;20452;-80
2022/09/21 00:56:50;;;;;;;33.75;31.88;;;;;;;9.64;100.00;101187.25;4976847;28;20061;-82
2022/09/21 00:59:20;;;;;;;32.70;31.00;;;;;;;9.66;100.00;101184.44;4969603;28;20074;-82
2022/09/21 01:01:54;;;;;;;34.13;32.13;;;;;;;9.72;100.00;101184.50;4951886;28;20047;-84
2022/09/21 01:04:29;;;;;;;35.33;33.53;;;;;;;9.08;100.00;101184.38;4947315;28;20530;-84
2022/09/21 01:07:04;;;;;;;36.65;34.53;;;;;;;9.38;100.00;101177.19;4954122;28;20118;-80
2022/09/21 01:09:38;;;;;;;34.53;32.53;;;;;;;8.85;100.00;101181.81;4952235;28;20051;-81
2022/09/21 01:12:28;;;;;;;35.53;33.50;;;;;;;8.76;100.00;101175.78;4960349;28;20054;-82
2022/09/21 01:15:14;;;;;;;29.95;28.25;;;;;;;9.20;100.00;101190.00;4958715;28;20078;-79
2022/09/21 01:17:58;;;;;;;31.33;29.38;;;;;;;9.33;100.00;101191.00;4950783;28;20051;-84
2022/09/21 01:21:06;;;;;;;32.28;30.48;;;;;;;8.98;100.00;101186.47;4941689;28;20048;-79
2022/09/21 01:24:20;;;;;;;36.35;34.35;;;;;;;9.26;100.00;101181.31;4955289;29;20048;-81
2022/09/21 01:26:59;;;;;;;;;;;;;;;9.26;100.00;101170.69;4948974;28;20054;-81
2022/09/21 01:29:33;;;;;;;33.38;31.50;;;;;;;9.36;100.00;101173.91;4941481;28;19923;-83
2022/09/21 01:32:09;;;;;;;31.65;29.80;;;;;;;9.05;100.00;101174.16;4960351;28;20050;-82
2022/09/21 01:34:42;;;;;;;31.00;29.27;;;;;;;9.39;100.00;101170.88;4960694;28;20055;-80
2022/09/21 01:37:15;;;;;;;35.15;33.05;;;;;;;8.96;100.00;101176.06;4957398;28;20411;-79
2022/09/21 01:39:59;;;;;;;34.08;32.08;;;;;;;8.73;100.00;101170.03;4970102;28;20054;-81
2022/09/21 01:42:34;;;;;;;33.75;31.85;;;;;;;8.69;100.00;101178.34;4946905;29;20113;-79
2022/09/21 01:45:15;;;;;;;32.25;30.38;;;;;;;8.04;100.00;101178.94;4938557;29;20055;-80
2022/09/21 01:47:46;;;;;;;32.50;30.40;;;;;;;8.70;100.00;101177.34;4962946;28;20487;-82
2022/09/21 01:50:17;;;;;;;33.33;31.42;;;;;;;8.08;100.00;101179.38;4956986;28;20043;-82
2022/09/21 01:53:00;;;;;;;35.30;33.30;;;;;;;8.41;100.00;101188.75;4950654;29;20404;-81
2022/09/21 01:55:39;;;;;;;36.50;34.40;;;;;;;8.61;100.00;101173.13;4956711;28;20047;-84
2022/09/21 01:58:19;;;;;;;35.78;33.78;;;;;;;8.64;100.00;101175.41;4945555;28;20051;-82
2022/09/21 02:00:50;;;;;;;33.22;31.33;;;;;;;8.12;100.00;101186.81;5083035;23;20029;-84
2022/09/21 02:03:25;;;;;;;38.58;36.28;;;;;;;7.83;100.00;101176.13;4988852;28;20047;-84
2022/09/21 02:05:57;;;;;;;36.72;34.42;;;;;;;8.06;100.00;101176.94;4989054;28;20098;-80
2022/09/21 02:08:26;;;;;;;32.75;30.83;;;;;;;8.14;100.00;101184.81;4983995;28;20046;-82
2022/09/21 02:10:55;;;;;;;34.47;32.20;;;;;;;8.56;100.00;101180.78;4985394;28;20097;-82
2022/09/21 02:13:27;;;;;;;34.50;32.47;;;;;;;8.47;100.00;101187.16;4994657;28;20474;-81
2022/09/21 02:16:12;;;;;;;36.13;33.90;;;;;;;7.59;100.00;101177.91;4995307;28;20047;-82
2022/09/21 02:18:49;;;;;;;38.67;36.33;;;;;;;7.77;100.00;101185.56;4984489;28;20089;-81
2022/09/21 02:21:24;;;;;;;35.78;33.63;;;;;;;7.28;100.00;101180.59;4988527;28;20043;-82
2022/09/21 02:24:05;;;;;;;35.58;33.47;;;;;;;7.46;100.00;101175.84;4982063;28;20054;-83
2022/09/21 02:26:40;;;;;;;36.22;33.97;;;;;;;7.64;100.00;101186.16;4976071;28;20109;-84
2022/09/21 02:29:20;;;;;;;35.65;33.55;;;;;;;7.51;100.00;101184.09;4984345;28;20050;-81
2022/09/21 02:31:55;;;;;;;34.05;32.00;;;;;;;7.91;100.00;101184.81;4989223;28;20415;-81
2022/09/21 02:34:34;;;;;;;37.85;35.70;;;;;;;7.62;100.00;101187.31;4990720;28;20553;-81
2022/09/21 02:37:18;;;;;;;35.97;33.88;;;;;;;7.15;100.00;101180.31;4990962;28;20050;-83
2022/09/21 02:39:59;;;;;;;36.85;34.85;;;;;;;7.36;100.00;101185.84;4975934;28;20113;-83
2022/09/21 02:42:29;;;;;;;36.88;34.88;;;;;;;7.65;100.00;101189.63;4992232;28;20112;-84
2022/09/21 02:45:09;;;;;;;33.15;30.95;;;;;;;7.65;100.00;101189.63;4991940;28;20113;-80
2022/09/21 02:47:55;;;;;;;35.10;33.17;;;;;;;7.53;100.00;101187.41;4993609;28;20475;-85
2022/09/21 02:50:26;;;;;;;38.00;36.00;;;;;;;7.68;100.00;101183.97;4976992;28;20053;-84
2022/09/21 02:52:59;;;;;;;35.03;33.03;;;;;;;7.16;100.00;101177.50;4994418;28;20050;-81
2022/09/21 02:55:28;;;;;;;35.65;33.55;;;;;;;7.47;100.00;101181.97;4980329;28;20051;-80
2022/09/21 02:57:56;;;;;;;37.50;35.28;;;;;;;7.26;100.00;101178.13;4991611;28;20116;-80
2022/09/21 03:00:38;;;;;;;40.03;37.72;;;;;;;7.52;100.00;101180.44;4984958;28;20122;-84
2022/09/21 03:03:17;;;;;;;33.63;31.63;;;;;;;7.33;100.00;101181.72;4989240;28;20039;-82
2022/09/21 03:05:47;;;;;;;33.90;31.70;;;;;;;7.34;100.00;101182.53;4993168;28;20048;-84
2022/09/21 03:08:14;;;;;;;37.05;34.88;;;;;;;7.34;100.00;101171.97;4992738;28;20463;-81
2022/09/21 03:10:43;;;;;;;35.30;33.25;;;;;;;7.58;100.00;101178.94;4985693;28;20046;-81
2022/09/21 03:13:21;;;;;;;34.67;32.58;;;;;;;7.37;100.00;101174.25;4985871;28;20453;-82
2022/09/21 03:16:00;;;;;;;34.22;32.03;;;;;;;6.79;100.00;101178.97;4976175;28;20116;-82
2022/09/21 03:18:31;;;;;;;36.88;34.45;;;;;;;6.56;100.00;101178.84;4976054;28;20047;-82
2022/09/21 03:20:59;;;;;;;36.22;33.28;;;;;;;6.91;100.00;101178.59;4992875;28;20054;-80
2022/09/21 03:23:28;;;;;;;33.65;31.45;;;;;;;6.65;100.00;101185.75;4982480;28;20108;-82
2022/09/21 03:26:08;;;;;;;35.45;32.92;;;;;;;6.79;100.00;101181.59;4991878;28;20537;-83
2022/09/21 03:28:48;;;;;;;37.95;35.30;;;;;;;6.89;100.00;101194.59;4988910;28;20047;-81
2022/09/21 03:31:17;;;;;;;41.10;38.60;;;;;;;6.85;100.00;101193.31;4987560;28;20475;-84
2022/09/21 03:33:45;;;;;;;37.65;35.55;;;;;;;6.91;100.00;101189.16;4983240;28;20141;-80
2022/09/21 03:36:12;;;;;;;34.80;32.72;;;;;;;6.83;100.00;101190.81;4989924;28;20121;-80
2022/09/21 03:38:47;;;;;;;38.75;36.55;;;;;;;6.73;100.00;101199.94;4980730;28;20483;-85
2022/09/21 03:41:18;;;;;;;40.80;38.30;;;;;;;7.00;100.00;101193.41;4978685;28;20105;-82
2022/09/21 03:43:46;;;;;;;39.13;36.80;;;;;;;7.11;100.00;101198.34;4992135;28;20057;-82
2022/09/21 03:46:20;;;;;;;38.85;36.63;;;;;;;6.99;100.00;101195.25;4987088;28;20050;-79
2022/09/21 03:48:50;;;;;;;40.45;37.67;;;;;;;6.91;100.00;101200.53;4990831;28;20062;-81
2022/09/21 03:51:25;;;;;;;36.17;34.08;;;;;;;6.56;100.00;101210.50;4988809;28;20123;-81
2022/09/21 03:53:53;;;;;;;47.47;44.47;;;;;;;6.02;100.00;101209.38;4982683;28;20470;-85
2022/09/21 03:56:27;;;;;;;57.50;53.00;;;;;;;6.65;100.00;101206.88;4870572;28;20064;-82
2022/09/21 03:58:55;;;;;;;55.83;51.63;;;;;;;6.86;100.00;101208.13;4958296;28;20046;-79
2022/09/21 04:01:22;;;;;;;63.75;58.67;;;;;;;6.81;100.00;101210.50;4991228;28;20113;-80
2022/09/21 04:03:51;;;;;;;43.28;40.33;;;;;;;6.32;100.00;101216.63;4982925;28;20125;-80
2022/09/21 04:06:20;;;;;;;34.83;32.42;;;;;;;6.61;100.00;101228.50;4982525;28;20141;-84
2022/09/21 04:08:47;;;;;;;35.75;33.35;;;;;;;6.60;100.00;101232.97;4985618;28;20113;-82
2022/09/21 04:11:17;;;;;;;40.97;38.08;;;;;;;6.53;100.00;101233.78;4983497;28;20047;-82
2022/09/21 04:13:44;;;;;;;32.20;30.10;;;;;;;6.69;100.00;101232.94;4985376;28;20050;-84
2022/09/21 04:16:11;;;;;;;31.02;28.98;;;;;;;6.51;100.00;101233.97;4981109;28;20120;-80
2022/09/21 04:18:39;;;;;;;30.08;28.17;;;;;;;6.28;100.00;101232.97;4981918;28;20058;-82
2022/09/21 04:21:08;;;;;;;32.63;30.70;;;;;;;6.51;100.00;101235.78;4986336;28;20043;-85
2022/09/21 04:23:46;;;;;;;33.33;31.05;;;;;;;6.67;100.00;101237.56;4984050;28;20126;-84
2022/09/21 04:26:28;;;;;;;32.70;30.67;;;;;;;6.64;100.00;101241.38;4982175;28;20058;-85
2022/09/21 04:28:59;;;;;;;31.30;29.40;;;;;;;6.49;100.00;101243.84;4980859;28;20129;-80
2022/09/21 04:31:30;;;;;;;32.90;30.52;;;;;;;6.69;100.00;101233.78;4982633;28;20112;-81
2022/09/21 04:33:58;;;;;;;33.47;31.02;;;;;;;6.95;100.00;101244.09;4981750;28;20042;-81
2022/09/21 04:36:31;;;;;;;32.08;30.10;;;;;;;7.05;100.00;101235.97;4981711;28;20046;-83
2022/09/21 04:39:00;;;;;;;32.72;29.98;;;;;;;7.05;100.00;101225.41;4984460;28;20048;-84
2022/09/21 04:41:27;;;;;;;30.52;28.70;;;;;;;6.95;100.00;101230.88;4981202;28;20048;-80
2022/09/21 04:43:54;;;;;;;31.33;29.00;;;;;;;6.82;100.00;101251.72;4977069;28;20113;-80
2022/09/21 04:46:31;;;;;;;32.80;30.58;;;;;;;6.91;100.00;101241.97;4982874;28;20055;-83
2022/09/21 04:48:58;;;;;;;34.13;31.92;;;;;;;7.24;100.00;101237.41;4983604;28;20702;-81
2022/09/21 04:51:26;;;;;;;33.67;31.58;;;;;;;7.64;100.00;101238.22;4986537;28;20137;-80
2022/09/21 04:54:01;;;;;;;36.75;33.65;;;;;;;7.85;100.00;101241.06;4987521;28;20073;-81
2022/09/21 04:56:37;;;;;;;35.00;32.70;;;;;;;8.10;100.00;101249.66;4985694;28;20133;-80
2022/09/21 04:59:07;;;;;;;35.97;33.50;;;;;;;8.18;100.00;101238.19;4987204;28;20050;-81
2022/09/21 05:01:33;;;;;;;36.53;34.63;;;;;;;8.36;100.00;101244.00;4986702;28;20054;-81
2022/09/21 05:04:01;;;;;;;35.08;32.97;;;;;;;8.38;100.00;101241.16;4988415;28;20050;-79
2022/09/21 05:06:28;;;;;;;32.08;29.98;;;;;;;8.37;100.00;101245.63;4985350;28;20128;-82
2022/09/21 05:11:51;;;;;;;31.90;30.08;;;;;;;8.83;100.00;101250.03;4975438;28;20055;-84
2022/09/21 05:14:18;;;;;;;33.00;30.92;;;;;;;8.87;100.00;101243.41;4986729;28;20053;-81
2022/09/21 05:16:48;;;;;;;34.80;32.17;;;;;;;8.82;100.00;101241.28;4984796;28;20047;-83
2022/09/21 05:19:17;;;;;;;32.25;30.30;;;;;;;9.08;100.00;101235.53;4981169;28;20050;-82
2022/09/21 05:21:51;;;;;;;34.00;32.10;;;;;;;9.10;100.00;101248.59;4979626;28;20051;-84
2022/09/21 05:24:19;;;;;;;34.10;31.35;;;;;;;9.48;100.00;101245.84;4980299;28;20491;-84
2022/09/21 05:26:50;;;;;;;32.97;30.38;;;;;;;9.48;100.00;101241.34;4983371;28;20047;-85
2022/09/21 05:29:17;;;;;;;35.03;32.83;;;;;;;9.68;100.00;101235.44;4982430;28;20050;-82
2022/09/21 05:31:51;;;;;;;36.10;33.90;;;;;;;10.04;100.00;101232.75;4985911;28;20046;-81
2022/09/21 05:34:41;;;;;;;41.25;38.85;;;;;;;10.07;100.00;101227.06;4987628;28;20042;-82
2022/09/21 05:37:15;;;;;;;44.13;41.42;;;;;;;10.35;100.00;101229.81;4985608;28;20380;-81
2022/09/21 05:39:42;;;;;;;45.90;43.47;;;;;;;10.40;100.00;101232.69;4986184;28;20405;-82
2022/09/21 05:42:12;;;;;;;36.38;34.13;;;;;;;10.30;100.00;101219.75;4990541;28;20550;-81
2022/09/21 05:44:48;;;;;;;40.63;38.33;;;;;;;10.58;100.00;101226.09;4982748;28;20113;-81
2022/09/21 05:47:24;;;;;;;50.88;48.13;;;;;;;11.10;100.00;101222.09;4994676;28;20090;-82
2022/09/21 05:50:00;;;;;;;47.25;44.40;;;;;;;11.34;100.00;101218.94;4984427;28;20065;-81
2022/09/21 05:52:39;;;;;;;43.22;40.60;;;;;;;11.19;100.00;101208.44;4994943;28;20054;-81
2022/09/21 05:55:20;;;;;;;49.00;46.45;;;;;;;11.59;100.00;101213.94;4994671;28;20146;-83
2022/09/21 05:57:59;;;;;;;46.92;44.17;;;;;;;11.97;100.00;101212.59;4982012;28;20050;-80
2022/09/21 06:00:42;;;;;;;41.92;40.03;;;;;;;11.95;100.00;101204.00;4981806;28;20058;-83
2022/09/21 06:03:28;;;;;;;46.70;44.65;;;;;;;11.89;100.00;101216.25;4982496;28;20046;-82
2022/09/21 06:05:58;;;;;;;47.17;44.83;;;;;;;12.49;100.00;101211.78;4980805;28;20122;-80
2022/09/21 06:08:25;;;;;;;46.20;43.90;;;;;;;11.81;100.00;101213.78;4992883;28;20061;-78
2022/09/21 06:10:55;;;;;;;42.53;40.53;;;;;;;12.45;100.00;101213.22;4988875;28;20121;-81
2022/09/21 06:13:25;;;;;;;42.28;40.00;;;;;;;12.27;100.00;101213.84;4986847;28;20418;-80
2022/09/21 06:15:54;;;;;;;43.65;41.65;;;;;;;12.35;100.00;101218.16;4986660;28;20058;-84
2022/09/21 06:18:20;;;;;;;40.08;37.97;;;;;;;12.10;100.00;101218.78;4985683;28;20067;-80
2022/09/21 06:20:47;;;;;;;37.00;35.20;;;;;;;11.96;100.00;101218.97;4983358;28;20047;-81
2022/09/21 06:23:15;;;;;;;34.80;33.15;;;;;;;12.41;100.00;101217.34;4987213;28;20042;-81
2022/09/21 06:25:42;;;;;;;36.80;35.00;;;;;;;12.81;100.00;101226.09;4980761;28;20085;-80
2022/09/21 06:28:10;;;;;;;36.33;34.50;;;;;;;12.90;100.00;101233.88;4987449;28;20050;-81
2022/09/21 06:30:41;;;;;;;37.35;35.45;;;;;;;13.05;100.00;101229.13;4994203;28;20057;-81
2022/09/21 06:33:22;;;;;;;39.03;37.13;;;;;;;12.59;100.00;101236.19;4985716;28;20042;-84
2022/09/21 06:35:53;;;;;;;36.75;35.05;;;;;;;12.69;100.00;101230.44;4988203;28;20101;-81
2022/09/21 06:38:28;;;;;;;36.92;35.13;;;;;;;13.15;100.00;101229.50;4989907;28;20117;-81
2022/09/21 06:40:55;;;;;;;36.58;34.63;;;;;;;13.40;100.00;101234.16;4984345;28;20046;-81
2022/09/21 06:43:23;;;;;;;37.00;35.30;;;;;;;12.55;100.00;101234.94;4980699;28;20046;-82
2022/09/21 06:45:55;;;;;;;35.97;34.17;;;;;;;13.17;100.00;101239.97;4985915;28;20054;-84
2022/09/21 06:48:24;;;;;;;41.20;39.20;;;;;;;13.05;100.00;101231.78;4982508;28;20198;-83
2022/09/21 06:50:56;;;;;;;35.20;33.30;;;;;;;12.97;100.00;101245.34;4977963;28;20062;-82
2022/09/21 06:53:24;;;;;;;36.17;34.20;;;;;;;13.55;100.00;101242.69;4985755;28;20471;-82
2022/09/21 06:55:53;;;;;;;35.28;33.28;;;;;;;13.12;100.00;101245.09;4981031;28;20047;-82
2022/09/21 06:58:21;;;;;;;36.20;34.25;;;;;;;13.48;100.00;101241.94;4992755;28;20056;-80
2022/09/21 07:00:49;;;;;;;36.17;34.08;;;;;;;13.31;100.00;101233.56;4993468;28;20058;-82
2022/09/21 07:03:36;;;;;;;35.20;33.10;;;;;;;14.03;100.00;101230.72;4984528;28;20078;-83
2022/09/21 07:06:03;;;;;;;33.90;32.00;;;;;;;14.24;100.00;101241.06;4983949;28;20054;-82
2022/09/21 07:08:30;;;;;;;31.55;29.85;;;;;;;13.63;100.00;101244.31;4993807;28;20108;-82
2022/09/21 07:10:58;;;;;;;32.85;31.05;;;;;;;14.18;100.00;101239.25;4994865;28;20050;-82
2022/09/21 07:13:31;;;;;;;33.75;31.85;;;;;;;14.17;100.00;101241.09;4993566;28;20055;-83
2022/09/21 07:16:17;;;;;;;35.85;34.05;;;;;;;13.96;100.00;101238.78;4995051;28;20054;-83
2022/09/21 07:18:47;;;;;;;36.72;34.83;;;;;;;14.36;100.00;101243.84;4985247;28;20446;-84
2022/09/21 07:21:15;;;;;;;41.95;39.75;;;;;;;14.18;100.00;101244.59;4984397;28;20474;-80
2022/09/21 07:23:43;;;;;;;37.38;35.33;;;;;;;14.61;100.00;101250.03;4992005;28;20054;-81
2022/09/21 07:26:13;;;;;;;37.10;35.05;;;;;;;14.00;100.00;101250.66;4977198;28;20046;-84
2022/09/21 07:28:40;;;;;;;39.45;37.55;;;;;;;14.04;100.00;101251.91;4992199;28;20050;-82
2022/09/21 07:31:11;;;;;;;38.45;36.45;;;;;;;14.95;100.00;101249.69;4991864;28;20054;-84
2022/09/21 07:33:49;;;;;;;34.53;32.70;;;;;;;14.79;100.00;101246.56;4990600;28;20061;-81
2022/09/21 07:36:16;;;;;;;38.30;36.40;;;;;;;16.61;100.00;101242.91;4992335;28;20046;-81
2022/09/21 07:38:45;;;;;;;40.03;37.78;;;;;;;15.23;100.00;101243.84;4992439;28;20056;-82
2022/09/21 07:41:14;;;;;;;38.55;36.45;;;;;;;15.30;100.00;101247.25;4993462;28;20053;-84
2022/09/21 07:43:41;;;;;;;34.67;32.78;;;;;;;15.80;100.00;101244.38;4992388;28;20057;-80
2022/09/21 07:46:10;;;;;;;38.70;36.70;;;;;;;16.01;100.00;101246.53;4993697;28;20038;-81
2022/09/21 07:48:39;;;;;;;38.40;36.30;;;;;;;15.12;100.00;101246.22;4993501;28;20104;-82
2022/09/21 07:51:11;;;;;;;38.55;36.35;;;;;;;15.99;100.00;101243.25;4993024;28;20042;-84
2022/09/21 07:53:41;;;;;;;38.22;36.38;;;;;;;14.29;100.00;101257.25;4986862;28;20124;-85
2022/09/21 07:56:11;;;;;;;42.78;40.58;;;;;;;14.57;100.00;101248.81;4993685;28;20117;-80
2022/09/21 08:01:23;;;;;;;38.10;35.83;;;;;;;15.35;100.00;101242.88;4993178;28;20080;-79
2022/09/21 08:03:51;;;;;;;35.65;33.85;;;;;;;15.54;100.00;101238.28;4993433;28;20046;-80
2022/09/21 08:06:19;;;;;;;36.78;34.88;;;;;;;16.32;100.00;101231.22;4987254;28;20112;-83
2022/09/21 08:08:49;;;;;;;36.95;34.85;;;;;;;16.64;100.00;101230.88;4983917;28;20562;-80
2022/09/21 08:11:22;;;;;;;39.63;37.10;;;;;;;17.11;100.00;101233.53;4979677;28;20447;-82
2022/09/21 08:13:52;;;;;;;36.40;34.45;;;;;;;16.63;100.00;101231.94;4991108;28;20047;-79
2022/09/21 08:16:20;;;;;;;41.65;39.20;;;;;;;16.02;100.00;101229.41;4992887;28;20105;-79
2022/09/21 08:18:49;;;;;;;37.55;35.55;;;;;;;16.52;100.00;101230.91;4986380;28;20494;-81
2022/09/21 08:21:19;;;;;;;35.50;33.33;;;;;;;17.58;100.00;101228.84;4986836;28;20093;-82
2022/09/21 08:23:47;;;;;;;33.75;31.75;;;;;;;17.10;100.00;101237.28;4990878;28;20046;-81
2022/09/21 08:26:17;;;;;;;34.38;32.58;;;;;;;17.23;100.00;101236.19;4989784;28;20129;-82
2022/09/21 08:28:53;;;;;;;35.75;33.65;;;;;;;17.41;100.00;101225.28;4989471;28;20085;-84
2022/09/21 08:31:22;;;;;;;36.03;34.13;;;;;;;16.70;100.00;101224.56;4988541;28;20054;-81
2022/09/21 08:33:50;;;;;;;39.08;36.22;;;;;;;16.03;100.00;101228.34;4981845;28;20121;-80
2022/09/21 08:36:17;;;;;;;35.17;33.28;;;;;;;16.15;100.00;101225.69;4989149;28;20047;-81
2022/09/21 08:38:53;;;;;;;33.95;32.20;;;;;;;17.05;100.00;101227.25;4983614;28;20530;-84
2022/09/21 08:41:47;;;;;;;38.45;36.45;;;;;;;17.83;100.00;101225.84;4987425;28;20376;-81
2022/09/21 08:44:21;;;;;;;39.72;37.67;;;;;;;16.85;99.33;101216.06;4984235;28;20054;-81
2022/09/21 08:47:03;;;;;;;40.13;37.80;;;;;;;16.83;100.00;101218.19;4989108;28;20042;-82
2022/09/21 08:49:33;;;;;;;36.22;34.42;;;;;;;17.22;100.00;101221.16;4992475;28;20050;-81
2022/09/21 08:52:03;;;;;;;41.90;39.70;;;;;;;18.98;100.00;101210.13;4985333;28;20104;-83
2022/09/21 08:54:37;;;;;;;49.85;47.20;;;;;;;19.48;86.28;101202.06;4987397;28;20491;-83
2022/09/21 08:57:09;;;;;;;46.22;43.83;;;;;;;18.82;96.41;101202.09;4985975;28;20055;-82
2022/09/21 08:59:39;;;;;;;41.58;39.17;;;;;;;19.34;93.24;101202.50;4985497;28;20052;-85
2022/09/21 09:02:21;;;;;;;38.45;36.33;;;;;;;20.09;87.37;101195.41;4980717;28;20043;-85
2022/09/21 09:05:03;;;;;;;38.63;36.47;;;;;;;17.07;100.00;101206.38;4986400;28;20050;-82
2022/09/21 09:08:09;;;;;;;37.60;35.63;;;;;;;20.79;91.92;101182.66;4995072;28;20050;-84
2022/09/21 09:10:54;;;;;;;37.55;35.47;;;;;;;19.81;85.79;101185.72;4987859;28;20399;-84
2022/09/21 09:49:00;;;;;;;37.35;35.35;;;;;;;18.38;86.50;101159.78;6271646;22;1342471;-85
2022/09/21 09:51:38;;;;;;;39.03;36.88;;;;;;;21.78;76.84;101155.63;6255500;22;20093;-84
2022/09/21 09:54:17;;;;;;;38.38;36.28;;;;;;;20.83;72.55;101150.56;6256368;22;20024;-83
2022/09/21 09:56:59;;;;;;;36.95;35.05;;;;;;;21.01;74.98;101141.97;6253444;22;20071;-83
2022/09/21 09:59:39;;;;;;;35.35;33.33;;;;;;;22.17;64.28;101153.22;6254127;22;20081;-83
2022/09/21 10:02:19;;;;;;;35.67;33.55;;;;;;;20.42;69.97;101153.00;6255150;22;20099;-84
2022/09/21 10:05:20;;;;;;;32.70;30.63;;;;;;;19.16;76.30;101162.44;6255427;22;20325;-84
2022/09/21 10:07:55;;;;;;;38.85;36.70;;;;;;;19.53;71.89;101148.25;6254535;22;20032;-81
2022/09/21 10:10:36;;;;;;;41.78;39.65;;;;;;;18.57;87.40;101156.81;6253967;22;20082;-82
2022/09/21 10:13:13;;;;;;;42.28;39.97;;;;;;;18.72;86.03;101154.31;6254980;22;20024;-83
2022/09/21 10:15:54;;;;;;;36.08;33.83;;;;;;;19.09;76.26;101146.47;6253753;22;20086;-85
2022/09/21 10:18:28;;;;;;;36.30;34.10;;;;;;;19.71;77.04;101141.72;6254886;22;20095;-84
2022/09/21 10:21:05;;;;;;;41.10;38.70;;;;;;;19.51;75.03;101142.31;6253219;22;20020;-84
2022/09/21 10:23:38;;;;;;;34.58;32.58;;;;;;;19.49;73.71;101149.84;6253495;22;20027;-83
2022/09/21 10:26:10;;;;;;;;;;;;;;;19.28;90.58;101149.63;6254735;22;20107;-82
2022/09/21 10:28:55;;;;;;;43.88;40.60;;;;;;;21.00;79.16;101147.66;6247232;22;19926;-86
2022/09/21 10:31:25;;;;;;;51.67;47.50;;;;;;;19.98;81.90;101141.66;6247149;22;20048;-82
2022/09/21 10:34:05;;;;;;;43.10;40.80;;;;;;;19.53;86.76;101141.00;6246487;22;20091;-82
2022/09/21 10:37:05;;;;;;;;;;;;;;;;;;;;;
2022/09/21 10:39:51;;;;;;;50.70;47.35;;;;;;;20.68;79.55;101140.50;6247482;23;20020;-82
2022/09/21 10:42:23;;;;;;;46.53;44.03;;;;;;;19.20;79.89;101134.72;6247572;22;20028;-83
2022/09/21 10:45:23;;;;;;;38.65;36.28;;;;;;;19.11;79.22;101143.53;6247306;22;20020;-83
2022/09/21 10:48:00;;;;;;;38.78;36.67;;;;;;;18.74;86.79;101147.66;6247287;22;20329;-81
2022/09/21 10:50:49;;;;;;;40.50;38.35;;;;;;;18.21;91.04;101146.34;6274180;22;20043;-82
2022/09/21 10:53:27;;;;;;;43.42;40.50;;;;;;;18.75;84.93;101151.16;6278375;22;20077;-82
2022/09/21 10:56:15;;;;;;;41.83;38.83;;;;;;;18.75;84.53;101143.91;6277835;22;20051;-82
2022/09/21 10:59:21;;;;;;;48.75;46.38;;;;;;;18.35;86.60;101141.47;6275689;22;20035;-85
2022/09/21 11:01:50;;;;;;;45.63;43.33;;;;;;;19.16;74.28;101127.44;6276403;22;20016;-81
2022/09/21 11:04:31;;;;;;;49.20;46.70;;;;;;;18.76;81.01;101131.28;6278061;22;20337;-83
2022/09/21 11:07:07;;;;;;;48.88;46.17;;;;;;;20.30;74.40;101134.34;6277049;22;20105;-82
2022/09/21 11:09:45;;;;;;;49.80;46.65;;;;;;;20.60;63.49;101119.41;6276555;22;20027;-81
2022/09/21 11:12:38;;;;;;;48.63;46.22;;;;;;;20.70;57.08;101116.78;6277215;22;20085;-85
2022/09/21 11:15:23;;;;;;;41.40;39.00;;;;;;;20.82;64.70;101121.94;6278286;22;20023;-85
2022/09/21 11:18:03;;;;;;;48.80;46.00;;;;;;;22.02;55.18;101106.41;6277615;22;20019;-86
2022/09/21 11:20:52;;;;;;;45.58;43.17;;;;;;;20.56;57.97;101108.34;6277523;22;20023;-85
2022/09/21 11:23:42;;;;;;;43.08;40.88;;;;;;;20.89;56.11;101114.41;6277914;22;20070;-85
2022/09/21 11:26:21;;;;;;;44.72;42.08;;;;;;;20.56;61.64;101094.03;6277745;22;20020;-83
2022/09/21 11:28:57;;;;;;;46.53;44.03;;;;;;;19.98;64.47;101102.03;6276625;22;20027;-82
2022/09/21 11:31:54;;;;;;;40.30;38.25;;;;;;;19.44;65.75;101088.66;6277409;22;20042;-81
2022/09/21 11:34:43;;;;;;;44.20;41.83;;;;;;;19.72;67.26;101086.75;6277117;22;20047;-84
2022/09/21 11:37:26;;;;;;;45.15;42.95;;;;;;;21.93;57.22;101087.22;6277675;22;20091;-81
2022/09/21 11:40:19;;;;;;;53.58;50.60;;;;;;;22.32;53.18;101076.63;6276774;22;20059;-86
2022/09/21 11:43:09;;;;;;;48.65;46.13;;;;;;;21.79;51.14;101078.06;6277576;22;20023;-85
2022/09/21 11:45:57;;;;;;;45.38;43.03;;;;;;;20.26;53.64;101067.69;6277541;22;20016;-86
2022/09/21 11:48:39;;;;;;;49.92;47.53;;;;;;;21.01;57.61;101070.97;6277000;22;20047;-81
2022/09/21 11:51:22;;;;;;;46.67;44.13;;;;;;;19.61;58.25;101078.56;6277366;22;20409;-82
2022/09/21 11:54:19;;;;;;;45.78;43.28;;;;;;;19.38;60.59;101070.81;6277838;22;20093;-82
2022/09/21 11:56:55;;;;;;;43.25;40.95;;;;;;;19.22;64.43;101072.56;6276605;22;20023;-84
2022/09/21 11:59:48;;;;;;;39.10;37.03;;;;;;;19.34;62.45;101075.09;6277910;22;20097;-82
2022/09/21 12:02:53;;;;;;;38.65;36.58;;;;;;;19.81;63.01;101071.72;6276937;22;20023;-83
2022/09/21 12:05:30;;;;;;;37.33;35.33;;;;;;;18.79;69.04;101078.81;6233810;22;20035;-84
2022/09/21 12:08:19;;;;;;;42.50;40.40;;;;;;;18.44;69.60;101083.50;6277333;22;20557;-82
2022/09/21 12:10:58;;;;;;;34.97;33.17;;;;;;;19.55;66.13;101079.59;6276943;22;20510;-83
2022/09/21 12:13:39;;;;;;;38.00;36.08;;;;;;;18.61;72.17;101080.75;6276446;22;20019;-86
2022/09/21 12:16:24;;;;;;;39.72;37.58;;;;;;;18.71;65.48;101075.50;6276525;22;20039;-86
2022/09/21 12:19:03;;;;;;;36.50;34.60;;;;;;;18.62;65.95;101085.06;6277146;22;20088;-84
2022/09/21 12:21:48;;;;;;;40.20;38.03;;;;;;;19.12;68.92;101067.06;6277197;22;20035;-83
2022/09/21 12:24:31;;;;;;;42.97;40.42;;;;;;;18.60;74.15;101078.31;6277032;22;20023;-83
2022/09/21 12:27:10;;;;;;;38.90;36.80;;;;;;;19.34;69.90;101065.13;6277350;22;20089;-86
2022/09/21 12:29:55;;;;;;;38.67;36.47;;;;;;;18.99;70.00;101076.38;6277397;22;20019;-86